createdAt,value
2022-11-12T00:02:38.437Z,13.98
2022-11-12T00:05:25.322Z,12.95
2022-11-12T00:08:11.953Z,13.32
2022-11-12T00:10:58.576Z,12.65
2022-11-12T00:13:44.749Z,13.32
2022-11-12T00:16:32.120Z,13.90
2022-11-12T00:19:18.447Z,13.18
2022-11-12T00:22:04.807Z,14.68
2022-11-12T00:24:51.212Z,13.63
2022-11-12T00:27:37.997Z,13.43
2022-11-12T00:30:24.578Z,13.32
2022-11-12T00:33:10.842Z,13.45
2022-11-12T00:36:00.690Z,15.07
2022-11-12T00:38:46.720Z,13.00
2022-11-12T00:41:33.671Z,13.02
2022-11-12T00:44:21.274Z,13.10
2022-11-12T00:47:08.052Z,14.20
2022-11-12T00:49:54.239Z,13.07
2022-11-12T00:52:40.492Z,14.98
2022-11-12T00:55:27.190Z,14.05
2022-11-12T00:58:13.679Z,13.93
2022-11-12T01:01:12.845Z,14.32
2022-11-12T01:06:46.440Z,14.02
2022-11-12T01:09:33.232Z,15.48
2022-11-12T01:12:20.136Z,14.90
2022-11-12T01:15:07.796Z,15.82
2022-11-12T01:17:55.734Z,15.35
2022-11-12T01:20:42.171Z,14.32
2022-11-12T01:23:28.997Z,14.02
2022-11-12T01:26:22.257Z,12.77
2022-11-12T01:29:08.857Z,13.50
2022-11-12T01:31:55.017Z,14.70
2022-11-12T01:34:41.460Z,15.82
2022-11-12T01:37:27.644Z,15.43
2022-11-12T01:40:14.993Z,14.43
2022-11-12T01:43:02.028Z,14.52
2022-11-12T01:45:51.656Z,14.70
2022-11-12T01:48:56.178Z,11.95
2022-11-12T01:51:50.234Z,11.73
2022-11-12T01:54:36.904Z,14.05
2022-11-12T01:57:35.116Z,12.38
2022-11-12T02:00:21.417Z,12.75
2022-11-12T02:03:16.361Z,11.57
2022-11-12T02:06:08.836Z,11.80
2022-11-12T02:08:55.829Z,12.02
2022-11-12T02:11:42.335Z,12.00
2022-11-12T02:14:29.975Z,11.55
2022-11-12T02:17:16.761Z,11.63
2022-11-12T02:20:03.867Z,11.50
2022-11-12T02:22:50.234Z,11.98
2022-11-12T02:25:42.737Z,12.52
2022-11-12T02:28:31.207Z,10.60
2022-11-12T02:31:17.468Z,11.65
2022-11-12T02:34:04.108Z,10.45
2022-11-12T02:36:50.071Z,9.70
2022-11-12T02:39:36.401Z,10.00
2022-11-12T02:42:23.199Z,8.40
2022-11-12T02:45:10.430Z,9.93
2022-11-12T02:47:57.263Z,9.85
2022-11-12T02:50:44.105Z,9.50
2022-11-12T02:53:32.587Z,8.77
2022-11-12T02:56:19.766Z,8.45
2022-11-12T02:59:06.999Z,9.35
2022-11-12T03:01:53.467Z,9.75
2022-11-12T03:04:39.537Z,8.55
2022-11-12T03:07:26.046Z,10.00
2022-11-12T03:10:16.153Z,9.82
2022-11-12T03:13:02.435Z,10.38
2022-11-12T03:15:48.853Z,9.20
2022-11-12T03:18:35.124Z,9.10
2022-11-12T03:21:21.187Z,10.15
2022-11-12T03:24:07.958Z,9.82
2022-11-12T03:26:54.689Z,9.80
2022-11-12T03:29:40.716Z,10.15
2022-11-12T03:32:27.111Z,9.63
2022-11-12T03:35:13.463Z,9.88
2022-11-12T03:38:00.063Z,8.73
2022-11-12T03:40:49.222Z,9.40
2022-11-12T03:43:36.128Z,8.68
2022-11-12T03:46:22.440Z,9.15
2022-11-12T03:49:08.940Z,8.02
2022-11-12T03:51:55.078Z,8.32
2022-11-12T03:54:41.178Z,8.93
2022-11-12T03:57:30.882Z,8.43
2022-11-12T04:00:17.813Z,8.18
2022-11-12T04:03:04.130Z,7.30
2022-11-12T04:06:09.336Z,8.05
2022-11-12T04:08:55.690Z,7.78
2022-11-12T04:11:41.688Z,8.40
2022-11-12T04:14:27.630Z,8.75
2022-11-12T04:17:31.967Z,9.13
2022-11-12T04:20:36.884Z,9.25
2022-11-12T04:23:23.294Z,8.63
2022-11-12T04:26:24.566Z,8.23
2022-11-12T04:29:37.753Z,8.75
2022-11-12T04:32:25.351Z,8.13
2022-11-12T04:35:11.796Z,8.65
2022-11-12T04:37:58.801Z,8.02
2022-11-12T04:41:03.549Z,8.35
2022-11-12T04:44:08.508Z,8.02
2022-11-12T04:46:54.990Z,8.00
2022-11-12T04:49:40.893Z,8.25
2022-11-12T04:52:29.115Z,8.32
2022-11-12T04:55:15.424Z,7.45
2022-11-12T04:58:01.815Z,7.68
2022-11-12T05:00:49.595Z,8.00
2022-11-12T05:03:35.673Z,7.95
2022-11-12T05:06:40.075Z,8.05
2022-11-12T05:09:29.396Z,7.65
2022-11-12T05:12:15.973Z,7.05
2022-11-12T05:15:02.684Z,7.43
2022-11-12T05:17:49.199Z,7.13
2022-11-12T05:20:36.668Z,7.22
2022-11-12T05:23:23.184Z,6.78
2022-11-12T05:26:09.594Z,6.82
2022-11-12T05:28:56.139Z,6.93
2022-11-12T05:31:42.659Z,6.30
2022-11-12T05:34:29.147Z,6.78
2022-11-12T05:37:16.096Z,6.65
2022-11-12T05:40:02.422Z,6.32
2022-11-12T05:42:49.030Z,6.72
2022-11-12T05:45:35.516Z,6.50
2022-11-12T05:48:24.555Z,6.68
2022-11-12T05:51:14.219Z,6.65
2022-11-12T05:54:01.672Z,6.65
2022-11-12T05:56:48.274Z,7.07
2022-11-12T05:59:35.107Z,7.35
2022-11-12T06:02:21.277Z,7.35
2022-11-12T06:05:07.992Z,7.93
2022-11-12T06:07:54.453Z,7.93
2022-11-12T06:10:41.432Z,7.63
2022-11-12T06:13:27.707Z,7.85
2022-11-12T06:16:13.830Z,6.85
2022-11-12T06:19:00.183Z,7.22
2022-11-12T06:21:46.242Z,7.20
2022-11-12T06:24:35.228Z,6.93
2022-11-12T06:27:24.204Z,7.18
2022-11-12T06:32:58.104Z,7.25
2022-11-12T06:35:44.589Z,7.28
2022-11-12T06:38:36.791Z,6.68
2022-11-12T06:41:23.364Z,7.03
2022-11-12T06:44:15.539Z,7.22
2022-11-12T06:47:04.237Z,8.02
2022-11-12T06:49:50.791Z,8.60
2022-11-12T06:52:37.308Z,7.50
2022-11-12T06:55:23.812Z,8.20
2022-11-12T06:58:10.751Z,7.32
2022-11-12T07:00:57.711Z,7.85
2022-11-12T07:03:44.777Z,8.38
2022-11-12T07:06:31.128Z,7.70
2022-11-12T07:09:17.838Z,9.13
2022-11-12T07:12:04.802Z,7.30
2022-11-12T07:14:52.531Z,8.10
2022-11-12T07:17:38.763Z,7.20
2022-11-12T07:20:24.660Z,7.00
2022-11-12T07:23:10.863Z,8.18
2022-11-12T07:26:02.555Z,7.45
2022-11-12T07:28:51.163Z,7.43
2022-11-12T07:31:38.030Z,7.22
2022-11-12T07:34:24.816Z,8.05
2022-11-12T07:37:11.173Z,6.95
2022-11-12T07:39:57.385Z,6.68
2022-11-12T07:42:43.783Z,6.55
2022-11-12T07:45:30.911Z,7.18
2022-11-12T07:48:17.664Z,6.93
2022-11-12T07:51:14.379Z,6.43
2022-11-12T07:54:00.809Z,6.28
2022-11-12T07:56:47.155Z,6.57
2022-11-12T07:59:33.471Z,6.22
2022-11-12T08:02:19.470Z,6.63
2022-11-12T08:05:12.128Z,8.00
2022-11-12T08:08:01.273Z,7.03
2022-11-12T08:10:47.997Z,7.20
2022-11-12T08:13:34.273Z,6.90
2022-11-12T08:16:20.627Z,6.55
2022-11-12T08:19:06.724Z,6.55
2022-11-12T08:21:52.689Z,6.55
2022-11-12T08:24:39.044Z,6.45
2022-11-12T08:27:25.509Z,6.47
2022-11-12T08:30:12.595Z,6.75
2022-11-12T08:33:06.008Z,6.20
2022-11-12T08:35:53.476Z,6.30
2022-11-12T08:38:40.487Z,6.43
2022-11-12T08:41:27.123Z,8.00
2022-11-12T08:44:13.335Z,6.55
2022-11-12T08:46:59.604Z,6.93
2022-11-12T08:49:48.207Z,6.78
2022-11-12T08:52:34.639Z,7.40
2022-11-12T08:55:21.342Z,5.80
2022-11-12T08:58:08.060Z,6.45
2022-11-12T09:00:55.322Z,6.88
2022-11-12T09:03:41.930Z,6.80
2022-11-12T09:06:27.838Z,6.72
2022-11-12T09:09:14.520Z,6.78
2022-11-12T09:12:06.206Z,6.82
2022-11-12T09:15:09.589Z,7.05
2022-11-12T09:18:07.120Z,6.28
2022-11-12T09:20:53.435Z,6.78
2022-11-12T09:23:40.893Z,7.15
2022-11-12T09:26:27.616Z,6.50
2022-11-12T09:29:14.182Z,7.60
2022-11-12T09:32:00.700Z,6.70
2022-11-12T09:34:46.904Z,6.53
2022-11-12T09:37:33.423Z,6.28
2022-11-12T09:40:20.669Z,6.70
2022-11-12T09:43:52.441Z,6.88
2022-11-12T09:46:41.401Z,6.70
2022-11-12T09:49:40.968Z,6.25
2022-11-12T09:52:30.221Z,7.00
2022-11-12T09:55:32.720Z,6.97
2022-11-12T09:58:20.065Z,6.97
2022-11-12T10:01:26.191Z,7.65
2022-11-12T10:04:45.329Z,7.25
2022-11-12T10:10:54.488Z,6.65
2022-11-12T10:14:13.951Z,7.30
2022-11-12T10:17:17.194Z,7.50
2022-11-12T10:20:21.135Z,7.78
2022-11-12T10:23:35.181Z,7.47
2022-11-12T10:26:25.675Z,7.32
2022-11-12T10:29:30.522Z,7.40
2022-11-12T10:32:17.348Z,7.57
2022-11-12T10:35:04.284Z,7.30
2022-11-12T10:38:04.900Z,7.07
2022-11-12T10:40:51.720Z,6.82
2022-11-12T10:43:38.750Z,6.97
2022-11-12T10:46:35.657Z,7.22
2022-11-12T10:49:23.353Z,7.60
2022-11-12T10:52:23.608Z,7.05
2022-11-12T10:55:30.966Z,8.18
2022-11-12T10:58:24.923Z,7.00
2022-11-12T11:01:17.761Z,7.35
2022-11-12T11:04:04.187Z,6.88
2022-11-12T11:07:04.146Z,6.93
2022-11-12T11:10:31.235Z,7.13
2022-11-12T11:13:27.620Z,7.10
2022-11-12T11:16:17.789Z,7.00
2022-11-12T11:19:05.898Z,7.72
2022-11-12T11:22:04.066Z,6.40
2022-11-12T11:25:08.224Z,11.00
2022-11-12T11:28:23.167Z,7.63
2022-11-12T11:31:20.086Z,9.80
2022-11-12T11:34:41.370Z,6.22
2022-11-12T11:37:38.972Z,6.00
2022-11-12T11:40:36.114Z,5.25
2022-11-12T11:43:40.352Z,6.43
2022-11-12T11:47:15.767Z,7.82
2022-11-12T11:50:33.681Z,7.05
2022-11-12T11:54:00.581Z,5.78
2022-11-12T11:56:49.110Z,6.93
2022-11-12T12:00:00.464Z,6.05
2022-11-12T12:02:58.518Z,8.10
2022-11-12T12:06:14.559Z,7.53
2022-11-12T12:09:35.591Z,14.95
2022-11-12T12:12:36.979Z,7.88
2022-11-12T12:16:04.361Z,9.75
2022-11-12T12:19:08.231Z,5.13
2022-11-12T12:21:56.997Z,5.20
2022-11-12T12:25:20.817Z,7.25
2022-11-12T12:28:34.329Z,4.93
2022-11-12T12:31:27.485Z,5.25
2022-11-12T12:34:23.987Z,6.25
2022-11-12T12:37:37.999Z,5.35
2022-11-12T12:40:50.064Z,4.60
2022-11-12T12:43:47.507Z,7.03
2022-11-12T12:46:48.488Z,5.72
2022-11-12T12:49:38.513Z,5.00
2022-11-12T12:52:24.586Z,6.72
2022-11-12T12:55:44.136Z,7.18
2022-11-12T12:58:34.380Z,4.95
2022-11-12T13:01:23.800Z,5.80
2022-11-12T13:04:11.856Z,6.57
2022-11-12T13:06:58.629Z,9.35
2022-11-12T13:09:44.902Z,6.28
2022-11-12T13:13:04.961Z,6.68
2022-11-12T13:15:55.445Z,5.53
2022-11-12T13:18:41.839Z,7.25
2022-11-12T13:21:29.144Z,6.70
2022-11-12T13:24:15.193Z,7.90
2022-11-12T13:27:02.026Z,6.40
2022-11-12T13:29:48.559Z,5.53
2022-11-12T13:32:50.234Z,6.50
2022-11-12T13:35:39.851Z,5.70
2022-11-12T13:38:26.758Z,7.57
2022-11-12T13:41:42.325Z,5.38
2022-11-12T13:44:29.323Z,6.05
2022-11-12T13:47:21.556Z,5.53
2022-11-12T13:50:14.021Z,6.25
2022-11-12T13:53:00.671Z,4.55
2022-11-12T13:55:52.916Z,8.57
2022-11-12T13:58:39.804Z,7.10
2022-11-12T14:01:34.330Z,6.13
2022-11-12T14:04:23.956Z,6.68
2022-11-12T14:07:27.911Z,12.70
2022-11-12T14:10:28.563Z,9.13
2022-11-12T14:13:53.198Z,6.88
2022-11-12T14:17:12.441Z,5.78
2022-11-12T14:20:25.726Z,6.38
2022-11-12T14:23:23.217Z,6.57
2022-11-12T14:26:38.168Z,6.60
2022-11-12T14:29:25.430Z,11.75
2022-11-12T14:32:15.126Z,6.57
2022-11-12T14:35:39.755Z,7.22
2022-11-12T14:38:39.155Z,11.85
2022-11-12T14:41:38.797Z,7.80
2022-11-12T14:44:36.964Z,8.05
2022-11-12T14:47:24.146Z,8.38
2022-11-12T14:50:33.406Z,9.40
2022-11-12T14:53:25.344Z,11.60
2022-11-12T14:56:36.092Z,8.02
2022-11-12T14:59:22.556Z,7.13
2022-11-12T15:02:46.888Z,9.65
2022-11-12T15:05:56.941Z,9.38
2022-11-12T15:08:43.128Z,8.43
2022-11-12T15:11:36.489Z,9.32
2022-11-12T15:14:25.111Z,6.78
2022-11-12T15:17:32.914Z,8.32
2022-11-12T15:20:20.410Z,9.07
2022-11-12T15:23:17.720Z,7.93
2022-11-12T15:26:37.650Z,7.75
2022-11-12T15:29:29.311Z,8.85
2022-11-12T15:32:15.365Z,8.63
2022-11-12T15:35:26.820Z,7.65
2022-11-12T15:38:24.818Z,9.80
2022-11-12T15:41:24.136Z,10.30
2022-11-12T15:44:11.738Z,8.93
2022-11-12T15:46:58.897Z,9.82
2022-11-12T15:49:54.223Z,9.85
2022-11-12T15:52:43.795Z,9.90
2022-11-12T15:55:32.463Z,9.07
2022-11-12T15:58:29.582Z,10.02
2022-11-12T16:01:15.869Z,9.93
2022-11-12T16:04:02.088Z,12.75
2022-11-12T16:06:48.403Z,9.38
2022-11-12T16:09:34.944Z,12.70
2022-11-12T16:12:21.846Z,14.20
2022-11-12T16:15:23.114Z,13.73
2022-11-12T16:18:14.138Z,12.32
2022-11-12T16:21:00.357Z,13.90
2022-11-12T16:23:46.729Z,14.48
2022-11-12T16:26:34.285Z,13.10
2022-11-12T16:29:20.634Z,12.38
2022-11-12T16:32:12.356Z,14.65
2022-11-12T16:35:01.245Z,16.60
2022-11-12T16:37:48.533Z,12.93
2022-11-12T16:40:34.921Z,11.93
2022-11-12T16:43:28.737Z,12.25
2022-11-12T16:46:35.900Z,11.95
2022-11-12T16:49:22.326Z,14.38
2022-11-12T16:52:10.422Z,13.57
2022-11-12T16:55:00.189Z,11.17
2022-11-12T16:57:51.122Z,11.68
2022-11-12T17:00:37.623Z,11.07
2022-11-12T17:03:24.013Z,11.45
2022-11-12T17:06:10.743Z,11.55
2022-11-12T17:08:57.282Z,11.40
2022-11-12T17:11:44.613Z,11.20
2022-11-12T17:14:30.959Z,11.82
2022-11-12T17:17:17.187Z,11.13
2022-11-12T17:20:03.511Z,14.02
2022-11-12T17:22:50.017Z,12.77
2022-11-12T17:25:43.626Z,10.93
2022-11-12T17:28:32.025Z,11.45
2022-11-12T17:31:21.375Z,11.50
2022-11-12T17:34:07.436Z,24.23
2022-11-12T17:36:53.614Z,24.30
2022-11-12T17:39:39.612Z,26.83
2022-11-12T17:42:25.986Z,15.40
2022-11-12T17:45:12.471Z,14.75
2022-11-12T17:47:58.946Z,12.70
2022-11-12T17:50:46.343Z,12.63
2022-11-12T17:53:32.780Z,12.27
2022-11-12T17:56:22.889Z,10.88
2022-11-12T17:59:09.591Z,12.80
2022-11-12T18:01:55.883Z,16.60
2022-11-12T18:04:42.033Z,16.30
2022-11-12T18:07:28.890Z,25.05
2022-11-12T18:10:19.774Z,24.55
2022-11-12T18:13:06.395Z,22.88
2022-11-12T18:15:52.875Z,19.60
2022-11-12T18:18:39.445Z,18.42
2022-11-12T18:21:27.319Z,17.02
2022-11-12T18:24:16.192Z,16.38
2022-11-12T18:29:48.587Z,12.98
2022-11-12T18:32:35.072Z,12.60
2022-11-12T18:35:22.726Z,13.63
2022-11-12T18:38:12.217Z,14.70
2022-11-12T18:41:09.156Z,12.88
2022-11-12T18:43:56.813Z,13.75
2022-11-12T18:46:42.990Z,13.40
2022-11-12T18:49:29.464Z,13.85
2022-11-12T18:52:15.830Z,18.55
2022-11-12T18:55:08.560Z,15.45
2022-11-12T18:57:55.009Z,16.90
2022-11-12T19:00:41.114Z,16.55
2022-11-12T19:03:27.665Z,15.90
2022-11-12T19:06:15.351Z,15.60
2022-11-12T19:09:02.178Z,14.88
2022-11-12T19:11:48.265Z,15.63
2022-11-12T19:14:34.422Z,19.23
2022-11-12T19:17:20.517Z,14.57
2022-11-12T19:20:07.982Z,15.02
2022-11-12T19:22:54.275Z,16.52
2022-11-12T19:26:07.694Z,15.23
2022-11-12T19:28:55.337Z,14.50
2022-11-12T19:31:41.717Z,14.38
2022-11-12T19:34:27.824Z,13.13
2022-11-12T19:40:20.333Z,13.50
2022-11-12T19:43:32.341Z,12.98
2022-11-12T19:46:19.957Z,13.45
2022-11-12T19:49:06.439Z,27.30
2022-11-12T19:51:52.599Z,47.75
2022-11-12T19:54:39.117Z,39.50
2022-11-12T19:57:49.572Z,29.67
2022-11-12T20:00:36.322Z,42.70
2022-11-12T20:03:25.043Z,42.80
2022-11-12T20:06:15.423Z,26.90
2022-11-12T20:09:03.939Z,20.50
2022-11-12T20:11:51.364Z,17.80
2022-11-12T20:14:37.611Z,19.73
2022-11-12T20:17:23.887Z,17.98
2022-11-12T20:20:10.594Z,18.60
2022-11-12T20:22:56.622Z,17.73
2022-11-12T20:26:10.466Z,16.20
2022-11-12T20:28:56.677Z,16.52
2022-11-12T20:31:43.050Z,16.33
2022-11-12T20:34:29.219Z,15.98
2022-11-12T20:37:15.478Z,15.85
2022-11-12T20:40:01.977Z,16.40
2022-11-12T20:42:50.637Z,16.92
2022-11-12T20:45:37.440Z,14.55
2022-11-12T20:48:24.647Z,13.60
2022-11-12T20:51:25.066Z,11.80
2022-11-12T20:54:11.758Z,14.07
2022-11-12T20:56:59.976Z,15.10
2022-11-12T20:59:51.137Z,15.23
2022-11-12T21:02:40.699Z,15.23
2022-11-12T21:05:26.582Z,14.85
2022-11-12T21:08:12.764Z,18.25
2022-11-12T21:11:01.785Z,16.75
2022-11-12T21:13:47.954Z,14.85
2022-11-12T21:16:34.248Z,15.55
2022-11-12T21:19:20.950Z,15.77
2022-11-12T21:22:07.380Z,15.73
2022-11-12T21:24:53.650Z,15.10
2022-11-12T21:27:40.383Z,16.42
2022-11-12T21:30:26.860Z,16.10
2022-11-12T21:33:13.924Z,16.00
2022-11-12T21:36:00.992Z,16.63
2022-11-12T21:38:48.307Z,15.05
2022-11-12T21:41:35.274Z,15.05
2022-11-12T21:44:22.002Z,16.77
2022-11-12T21:47:08.485Z,15.93
2022-11-12T21:49:55.096Z,15.63
2022-11-12T21:52:41.453Z,15.77
2022-11-12T21:55:27.842Z,16.75
2022-11-12T21:58:14.093Z,18.05
2022-11-12T22:01:22.175Z,17.60
2022-11-12T22:04:10.933Z,17.47
2022-11-12T22:07:05.734Z,16.13
2022-11-12T22:09:56.471Z,15.13
2022-11-12T22:13:04.975Z,14.60
2022-11-12T22:15:50.608Z,15.52
2022-11-12T22:18:37.362Z,16.50
2022-11-12T22:21:36.723Z,16.85
2022-11-12T22:24:26.126Z,16.90
2022-11-12T22:27:12.437Z,17.08
2022-11-12T22:29:58.822Z,16.50
2022-11-12T22:32:45.151Z,14.05
2022-11-12T22:35:31.293Z,16.50
2022-11-12T22:38:17.604Z,16.85
2022-11-12T22:41:10.368Z,17.02
2022-11-12T22:44:01.063Z,18.30
2022-11-12T22:46:47.396Z,19.85
2022-11-12T22:49:34.396Z,19.80
2022-11-12T22:52:20.645Z,19.58
2022-11-12T22:55:10.782Z,20.75
2022-11-12T22:58:00.279Z,19.80
2022-11-12T23:03:34.511Z,20.13
2022-11-12T23:06:23.246Z,19.73
2022-11-12T23:09:16.564Z,19.70
2022-11-12T23:12:03.430Z,20.20
2022-11-12T23:14:50.047Z,20.35
2022-11-12T23:17:36.343Z,19.02
2022-11-12T23:20:23.185Z,22.75
2022-11-12T23:23:09.083Z,20.00
2022-11-12T23:26:01.583Z,20.98
2022-11-12T23:29:12.814Z,19.25
2022-11-12T23:31:59.158Z,19.80
2022-11-12T23:34:45.552Z,20.98
2022-11-12T23:37:31.863Z,18.52
2022-11-12T23:40:18.228Z,19.33
2022-11-12T23:43:04.351Z,17.70
2022-11-12T23:45:51.661Z,19.60
2022-11-12T23:48:38.130Z,17.80
2022-11-12T23:51:24.505Z,17.63
2022-11-12T23:54:11.243Z,18.95
2022-11-12T23:56:57.743Z,17.50
2022-11-12T23:59:43.987Z,17.02
